Time;durP1;ratioP1;P1;durP2;ratioP2;P2;SDS_P1;SDS_P2;PMS_P1;PMS_P2;Temp;Humidity;BMP_temperature;BMP_pressure;BME280_temperature;BME280_humidity;BME280_pressure;Samples;Min_cycle;Max_cycle;Signal;HPM_P1;HPM_P2
2022/06/26 00:01:34;;;;;;;8.38;5.47;;;18.30;99.90;;;;;;5063594;28;20056;-60
2022/06/26 00:04:00;;;;;;;5.65;4.63;;;18.30;99.90;;;;;;5066609;28;20416;-61
2022/06/26 00:06:25;;;;;;;5.55;4.97;;;18.30;99.90;;;;;;5069663;28;20408;-60
2022/06/26 00:08:51;;;;;;;4.97;4.45;;;18.30;99.90;;;;;;5072553;28;20039;-61
2022/06/26 00:11:17;;;;;;;6.93;5.45;;;18.40;99.90;;;;;;5063915;28;20095;-61
2022/06/26 00:13:42;;;;;;;6.72;6.13;;;18.40;99.90;;;;;;5073215;28;20101;-61
2022/06/26 00:16:08;;;;;;;10.23;5.88;;;18.40;99.90;;;;;;5064136;28;20468;-60
2022/06/26 00:18:34;;;;;;;6.95;6.07;;;18.30;99.90;;;;;;5067378;28;20029;-61
2022/06/26 00:20:59;;;;;;;8.57;6.20;;;18.30;99.90;;;;;;5068485;28;20040;-61
2022/06/26 00:23:25;;;;;;;6.63;5.97;;;18.20;99.90;;;;;;5074908;28;20056;-61
2022/06/26 00:25:51;;;;;;;7.13;6.43;;;18.20;99.90;;;;;;5070259;28;20488;-61
2022/06/26 00:28:16;;;;;;;7.43;6.10;;;18.10;99.90;;;;;;5101148;28;20036;-61
2022/06/26 00:30:42;;;;;;;6.68;5.97;;;18.10;99.90;;;;;;5058772;28;20025;-61
2022/06/26 00:33:07;;;;;;;7.80;6.80;;;18.10;99.90;;;;;;5063843;28;20051;-60
2022/06/26 00:35:33;;;;;;;8.65;7.55;;;18.10;99.90;;;;;;5066414;28;20044;-61
2022/06/26 00:37:59;;;;;;;8.15;7.28;;;18.10;99.90;;;;;;5077366;28;20054;-60
2022/06/26 00:40:24;;;;;;;7.32;6.22;;;18.10;99.90;;;;;;5066218;28;20027;-60
2022/06/26 00:42:50;;;;;;;9.57;8.60;;;18.10;99.90;;;;;;5062210;28;20027;-60
2022/06/26 00:45:15;;;;;;;9.45;8.60;;;18.10;99.90;;;;;;5073660;28;20033;-61
2022/06/26 00:47:41;;;;;;;8.25;7.38;;;18.10;99.90;;;;;;5073736;28;20085;-61
2022/06/26 00:50:08;;;;;;;7.03;6.35;;;18.10;99.90;;;;;;5073089;28;20472;-61
2022/06/26 00:52:35;;;;;;;7.13;6.43;;;18.10;99.90;;;;;;5061337;28;20064;-61
2022/06/26 00:55:02;;;;;;;9.05;8.15;;;18.20;99.90;;;;;;5072497;28;20025;-61
2022/06/26 00:57:28;;;;;;;10.35;9.15;;;18.20;99.90;;;;;;5073624;28;20044;-60
2022/06/26 00:59:55;;;;;;;10.73;9.60;;;18.10;99.90;;;;;;5072124;28;20036;-61
2022/06/26 01:02:21;;;;;;;9.15;8.25;;;18.10;99.90;;;;;;5053328;28;20075;-61
2022/06/26 01:04:47;;;;;;;7.70;7.00;;;18.10;99.90;;;;;;5069160;28;20037;-60
2022/06/26 01:07:13;;;;;;;6.78;6.13;;;18.10;99.90;;;;;;5055708;28;20070;-61
2022/06/26 01:09:39;;;;;;;6.25;5.65;;;18.10;99.90;;;;;;5053745;28;20029;-61
2022/06/26 01:12:06;;;;;;;6.75;6.05;;;18.10;99.90;;;;;;5053771;28;20135;-60
2022/06/26 01:14:32;;;;;;;6.57;5.88;;;18.20;99.90;;;;;;5068871;28;20657;-61
2022/06/26 01:16:59;;;;;;;7.25;6.55;;;18.20;99.90;;;;;;5053732;28;20059;-60
2022/06/26 01:19:25;;;;;;;7.60;6.40;;;18.20;99.90;;;;;;5053208;28;20020;-61
2022/06/26 01:21:51;;;;;;;6.70;6.10;;;18.20;99.90;;;;;;5053404;28;20040;-60
2022/06/26 01:24:16;;;;;;;7.10;5.95;;;18.20;99.90;;;;;;5053395;28;20117;-60
2022/06/26 01:26:42;;;;;;;6.45;5.35;;;18.20;99.90;;;;;;5053389;28;20048;-60
2022/06/26 01:29:08;;;;;;;8.27;5.95;;;18.20;99.90;;;;;;5056332;28;20024;-60
2022/06/26 01:31:34;;;;;;;6.15;5.57;;;18.20;99.90;;;;;;5065103;28;20074;-61
2022/06/26 01:34:02;;;;;;;5.88;5.28;;;18.20;99.90;;;;;;5057310;28;20016;-60
2022/06/26 01:36:28;;;;;;;6.25;5.65;;;18.20;99.90;;;;;;5055313;28;20029;-61
2022/06/26 01:38:53;;;;;;;5.88;5.38;;;18.20;99.90;;;;;;5057477;28;20442;-61
2022/06/26 01:41:19;;;;;;;7.15;5.53;;;18.20;99.90;;;;;;5064247;28;20020;-60
2022/06/26 01:43:44;;;;;;;7.88;7.15;;;18.20;99.90;;;;;;5059297;28;20472;-60
2022/06/26 01:46:10;;;;;;;7.55;6.82;;;18.10;99.90;;;;;;5062895;28;20032;-60
2022/06/26 01:48:39;;;;;;;6.30;5.68;;;18.10;99.90;;;;;;5059147;28;20021;-60
2022/06/26 01:51:04;;;;;;;6.45;5.88;;;18.10;99.90;;;;;;5064644;28;20426;-60
2022/06/26 01:53:30;;;;;;;8.40;5.85;;;18.10;99.90;;;;;;5068154;28;20029;-60
2022/06/26 01:55:56;;;;;;;6.80;6.18;;;18.10;99.90;;;;;;5073085;28;20099;-60
2022/06/26 01:58:22;;;;;;;5.55;5.05;;;18.10;99.90;;;;;;5072632;28;20127;-60
2022/06/26 02:00:48;;;;;;;6.50;5.90;;;18.10;99.90;;;;;;5065386;28;20104;-60
2022/06/26 02:03:17;;;;;;;8.13;6.93;;;18.10;99.90;;;;;;5058055;28;20438;-60
2022/06/26 02:05:43;;;;;;;6.70;6.05;;;18.10;99.90;;;;;;5072362;28;20020;-60
2022/06/26 02:08:09;;;;;;;7.63;6.85;;;18.20;99.90;;;;;;5067764;28;20430;-60
2022/06/26 02:16:18;;;;;;;8.10;7.32;;;18.00;99.90;;;;;;5070927;28;20082;-60
2022/06/26 02:18:46;;;;;;;9.40;8.50;;;18.10;99.90;;;;;;5062195;28;20074;-60
2022/06/26 02:21:16;;;;;;;9.82;8.88;;;18.00;99.90;;;;;;5071880;28;20020;-60
2022/06/26 02:23:43;;;;;;;10.43;8.68;;;18.00;99.90;;;;;;5072500;28;20527;-60
2022/06/26 02:26:09;;;;;;;9.50;8.27;;;18.00;99.90;;;;;;5067572;28;20029;-60
2022/06/26 02:28:36;;;;;;;8.88;7.80;;;18.00;99.90;;;;;;5063431;28;20040;-60
2022/06/26 02:31:03;;;;;;;9.18;7.15;;;18.00;99.90;;;;;;5068308;28;20013;-60
2022/06/26 02:33:29;;;;;;;10.40;8.85;;;18.00;99.90;;;;;;5062236;28;20017;-60
2022/06/26 02:35:55;;;;;;;9.85;8.88;;;18.00;99.90;;;;;;5058927;28;20075;-60
2022/06/26 02:38:22;;;;;;;10.40;9.30;;;18.00;99.90;;;;;;5070747;28;20120;-60
2022/06/26 02:40:48;;;;;;;11.82;10.35;;;18.00;99.90;;;;;;5070717;28;20028;-60
2022/06/26 02:43:14;;;;;;;11.18;10.13;;;18.00;99.90;;;;;;5060746;28;20029;-60
2022/06/26 02:45:39;;;;;;;11.98;10.60;;;18.00;99.90;;;;;;5052045;28;20100;-60
2022/06/26 02:48:05;;;;;;;10.95;9.90;;;18.00;99.90;;;;;;5067597;28;20025;-60
2022/06/26 02:50:31;;;;;;;11.05;9.68;;;18.00;99.90;;;;;;5068397;28;20511;-60
2022/06/26 02:52:56;;;;;;;10.93;9.68;;;18.00;99.90;;;;;;5070186;28;20029;-60
2022/06/26 02:55:22;;;;;;;12.50;10.13;;;18.00;99.90;;;;;;5067479;28;20078;-60
2022/06/26 02:57:47;;;;;;;11.30;10.15;;;17.90;99.90;;;;;;5069879;28;20037;-60
2022/06/26 03:00:14;;;;;;;12.52;11.20;;;17.90;99.90;;;;;;5066564;28;20103;-60
2022/06/26 03:02:39;;;;;;;11.93;10.73;;;17.90;99.90;;;;;;5068809;28;20095;-60
2022/06/26 03:05:06;;;;;;;14.15;11.32;;;17.80;99.90;;;;;;5062407;28;20104;-60
2022/06/26 03:07:31;;;;;;;15.05;12.75;;;17.90;99.90;;;;;;5066543;28;20108;-60
2022/06/26 03:09:57;;;;;;;12.65;11.35;;;17.80;99.90;;;;;;5071641;28;20480;-60
2022/06/26 03:12:22;;;;;;;13.98;12.57;;;17.80;99.90;;;;;;5070677;28;20025;-60
2022/06/26 03:14:48;;;;;;;13.65;12.30;;;17.80;99.90;;;;;;5071660;28;20074;-60
2022/06/26 03:17:15;;;;;;;13.18;11.88;;;17.70;99.90;;;;;;5070419;28;20025;-60
2022/06/26 03:19:41;;;;;;;12.70;11.40;;;17.70;99.90;;;;;;5071432;28;20376;-60
2022/06/26 03:22:06;;;;;;;15.20;13.65;;;17.70;99.90;;;;;;5069870;28;20543;-60
2022/06/26 03:24:32;;;;;;;13.13;11.77;;;17.70;99.90;;;;;;5070926;28;20028;-60
2022/06/26 03:26:58;;;;;;;15.15;13.63;;;17.70;99.90;;;;;;5073845;28;20029;-60
2022/06/26 03:29:24;;;;;;;14.60;12.70;;;17.70;99.90;;;;;;5074694;28;20162;-60
2022/06/26 03:31:50;;;;;;;14.95;12.35;;;17.60;99.90;;;;;;5064986;28;20065;-60
2022/06/26 03:34:15;;;;;;;13.20;11.80;;;17.60;99.90;;;;;;5100667;28;20554;-60
2022/06/26 03:36:41;;;;;;;12.90;11.43;;;17.60;99.90;;;;;;5055532;28;20098;-60
2022/06/26 03:39:06;;;;;;;16.17;14.48;;;17.60;99.90;;;;;;5084147;28;20147;-60
2022/06/26 03:41:33;;;;;;;15.80;14.10;;;17.60;99.90;;;;;;5055749;28;20056;-60
2022/06/26 03:43:59;;;;;;;14.68;12.90;;;17.50;99.90;;;;;;5055736;28;20391;-60
2022/06/26 03:46:26;;;;;;;17.25;14.82;;;17.50;99.90;;;;;;5055165;28;20029;-60
2022/06/26 03:48:51;;;;;;;17.05;15.23;;;17.40;99.90;;;;;;5055870;28;20546;-60
2022/06/26 03:51:17;;;;;;;16.73;15.02;;;17.40;99.90;;;;;;5055576;28;20037;-60
2022/06/26 03:53:43;;;;;;;17.60;15.60;;;17.40;99.90;;;;;;5055592;28;20464;-60
2022/06/26 03:56:08;;;;;;;15.35;13.73;;;17.40;99.90;;;;;;5055262;28;20028;-60
2022/06/26 03:58:34;;;;;;;20.45;17.60;;;17.30;99.90;;;;;;5055389;28;20049;-60
2022/06/26 04:00:59;;;;;;;17.42;15.63;;;17.30;99.90;;;;;;5055522;28;20115;-60
2022/06/26 04:03:25;;;;;;;22.35;19.95;;;17.30;99.90;;;;;;5064211;28;20503;-60
2022/06/26 04:05:50;;;;;;;23.20;19.20;;;17.30;99.90;;;;;;5061674;28;20662;-60
2022/06/26 04:08:16;;;;;;;21.13;16.95;;;17.20;99.90;;;;;;5074749;28;20028;-60
2022/06/26 04:10:43;;;;;;;17.60;15.07;;;17.20;99.90;;;;;;5061437;28;20052;-60
2022/06/26 04:13:11;;;;;;;18.95;15.30;;;17.20;99.90;;;;;;5074573;28;20021;-60
2022/06/26 04:15:38;;;;;;;20.65;16.88;;;17.20;99.90;;;;;;5069568;28;20025;-60
2022/06/26 04:18:05;;;;;;;23.20;20.38;;;17.20;99.90;;;;;;5054974;28;20029;-60
2022/06/26 04:20:30;;;;;;;27.70;21.65;;;17.10;99.90;;;;;;5054720;28;20025;-60
2022/06/26 04:23:07;;;;;;;22.95;18.92;;;17.00;99.90;;;;;;5065975;28;20031;-60
2022/06/26 04:25:34;;;;;;;21.73;18.25;;;17.00;99.90;;;;;;5073774;28;20024;-60
2022/06/26 04:28:00;;;;;;;20.30;16.20;;;16.90;99.90;;;;;;5074487;28;20561;-60
2022/06/26 04:30:26;;;;;;;19.38;16.88;;;16.90;99.90;;;;;;5074105;28;20029;-60
2022/06/26 04:32:52;;;;;;;21.27;18.60;;;16.90;99.90;;;;;;5055500;28;20104;-60
2022/06/26 04:35:18;;;;;;;18.88;14.43;;;16.90;99.90;;;;;;5054683;28;20083;-60
2022/06/26 04:37:44;;;;;;;16.95;13.63;;;16.80;99.90;;;;;;5066816;28;20021;-60
2022/06/26 04:40:11;;;;;;;16.13;13.02;;;16.80;99.90;;;;;;5054514;28;20017;-60
2022/06/26 04:42:37;;;;;;;16.60;13.80;;;16.80;99.90;;;;;;5054564;28;20048;-60
2022/06/26 04:45:04;;;;;;;15.70;12.40;;;16.80;99.90;;;;;;5054710;28;20092;-60
2022/06/26 04:47:30;;;;;;;17.45;13.65;;;16.80;99.90;;;;;;5068622;28;20024;-60
2022/06/26 04:49:55;;;;;;;17.65;14.05;;;16.80;99.90;;;;;;5067065;28;20388;-60
2022/06/26 04:52:21;;;;;;;16.58;13.02;;;16.70;99.90;;;;;;5073423;28;20028;-60
2022/06/26 04:54:46;;;;;;;19.05;14.82;;;16.70;99.90;;;;;;5071697;28;20021;-61
2022/06/26 04:57:12;;;;;;;22.88;16.35;;;16.70;99.90;;;;;;5065072;28;20044;-60
2022/06/26 04:59:38;;;;;;;23.92;16.98;;;16.70;99.90;;;;;;5067717;28;20086;-60
2022/06/26 05:02:05;;;;;;;18.65;15.27;;;16.70;99.90;;;;;;5057978;28;20052;-60
2022/06/26 05:04:30;;;;;;;21.88;15.38;;;16.70;99.90;;;;;;5067832;28;20052;-60
2022/06/26 05:06:56;;;;;;;18.20;15.32;;;16.70;99.90;;;;;;5068095;28;20024;-60
2022/06/26 05:09:23;;;;;;;16.08;12.43;;;16.70;99.90;;;;;;5063208;28;20033;-60
2022/06/26 05:11:49;;;;;;;18.55;13.75;;;16.70;99.90;;;;;;5065741;28;20087;-60
2022/06/26 05:14:15;;;;;;;18.23;14.15;;;16.80;99.90;;;;;;5062517;28;20017;-60
2022/06/26 05:16:40;;;;;;;16.90;12.38;;;16.80;99.90;;;;;;5087022;28;20032;-60
2022/06/26 05:19:06;;;;;;;15.02;12.05;;;16.80;99.90;;;;;;5062459;28;20021;-60
2022/06/26 05:21:32;;;;;;;18.20;11.75;;;16.80;99.90;;;;;;5083926;28;20048;-60
2022/06/26 05:23:57;;;;;;;17.10;13.45;;;16.90;99.90;;;;;;5060429;28;20056;-60
2022/06/26 05:26:23;;;;;;;18.95;12.80;;;16.90;99.90;;;;;;5097713;28;20113;-60
2022/06/26 05:28:49;;;;;;;17.45;13.15;;;16.90;99.90;;;;;;5061658;28;20071;-60
2022/06/26 05:31:15;;;;;;;14.32;12.13;;;16.90;99.90;;;;;;5066493;28;20024;-60
2022/06/26 05:33:41;;;;;;;11.45;10.25;;;16.90;99.90;;;;;;5053708;28;20431;-60
2022/06/26 05:36:07;;;;;;;18.20;12.63;;;16.90;99.90;;;;;;5053222;28;20027;-60
2022/06/26 05:38:33;;;;;;;15.43;11.95;;;16.90;99.90;;;;;;5057845;28;20479;-60
2022/06/26 05:40:59;;;;;;;14.80;10.80;;;16.90;99.90;;;;;;5070769;28;20043;-60
2022/06/26 05:43:25;;;;;;;14.00;11.80;;;16.80;99.90;;;;;;5070987;28;20020;-60
2022/06/26 05:45:50;;;;;;;18.67;11.27;;;16.90;99.90;;;;;;5072569;28;20029;-61
2022/06/26 05:48:16;;;;;;;13.45;10.13;;;16.90;99.90;;;;;;5070781;28;20050;-60
2022/06/26 05:50:41;;;;;;;9.85;8.55;;;16.80;99.90;;;;;;5072244;28;20070;-60
2022/06/26 05:53:07;;;;;;;11.70;9.05;;;16.90;99.90;;;;;;5071737;28;20013;-60
2022/06/26 05:55:33;;;;;;;12.27;10.30;;;16.90;99.90;;;;;;5071730;28;20063;-60
2022/06/26 05:57:59;;;;;;;13.52;9.48;;;17.00;99.90;;;;;;5070460;28;20036;-60
2022/06/26 06:01:06;;;;;;;;;;;;;;;;;;;;;
2022/06/26 06:03:32;;;;;;;11.00;8.60;;;17.00;99.90;;;;;;5064214;28;20027;-60
2022/06/26 06:09:32;;;;;;;13.98;9.32;;;17.10;99.90;;;;;;5002836;28;20551;-60
2022/06/26 06:11:58;;;;;;;13.25;9.18;;;17.00;99.90;;;;;;5010293;28;20022;-60
2022/06/26 06:14:24;;;;;;;10.10;7.65;;;17.10;99.90;;;;;;5058227;28;20035;-60
2022/06/26 06:16:49;;;;;;;9.60;7.53;;;17.10;99.90;;;;;;5068491;28;20029;-61
2022/06/26 06:19:15;;;;;;;12.68;7.97;;;17.20;99.90;;;;;;5061588;28;20048;-60
2022/06/26 06:21:41;;;;;;;9.40;7.40;;;17.20;99.90;;;;;;5064967;28;20036;-61
2022/06/26 06:24:06;;;;;;;9.35;6.43;;;17.20;99.90;;;;;;5071466;28;20035;-60
2022/06/26 06:26:32;;;;;;;9.15;7.90;;;17.20;99.90;;;;;;5060071;28;20033;-60
2022/06/26 06:28:58;;;;;;;9.80;8.70;;;17.30;99.90;;;;;;5064018;28;20025;-60
2022/06/26 06:31:23;;;;;;;11.68;8.15;;;17.30;99.90;;;;;;5065797;28;20422;-60
2022/06/26 06:33:49;;;;;;;9.25;6.72;;;17.30;99.90;;;;;;5061514;28;20029;-60
2022/06/26 06:36:15;;;;;;;8.07;6.88;;;17.40;99.90;;;;;;5054909;28;20025;-60
2022/06/26 06:38:41;;;;;;;9.35;6.45;;;17.50;99.90;;;;;;5067073;28;20050;-60
2022/06/26 06:41:07;;;;;;;8.68;6.30;;;17.50;99.90;;;;;;5062744;28;20513;-60
2022/06/26 06:43:32;;;;;;;7.15;5.32;;;17.60;99.90;;;;;;5056612;28;20036;-60
2022/06/26 06:45:58;;;;;;;6.22;5.07;;;17.70;99.90;;;;;;5058613;28;20051;-61
2022/06/26 06:48:24;;;;;;;6.43;5.15;;;17.80;99.90;;;;;;5054152;28;20035;-60
2022/06/26 06:50:51;;;;;;;6.20;4.75;;;17.80;99.90;;;;;;5057340;28;20017;-60
2022/06/26 06:53:18;;;;;;;6.53;4.30;;;17.90;99.90;;;;;;5056419;28;20061;-60
2022/06/26 06:55:44;;;;;;;6.43;3.95;;;18.00;99.90;;;;;;5058981;28;20381;-60
2022/06/26 06:58:09;;;;;;;5.28;2.72;;;18.20;99.90;;;;;;5064787;28;20570;-61
2022/06/26 07:00:35;;;;;;;5.03;3.15;;;18.30;99.90;;;;;;5061445;28;20032;-60
2022/06/26 07:03:02;;;;;;;5.88;4.63;;;18.40;99.90;;;;;;5063804;28;20021;-60
2022/06/26 07:05:58;;;;;;;6.88;4.72;;;18.50;99.90;;;;;;5065283;28;20465;-60
2022/06/26 07:08:23;;;;;;;5.55;3.55;;;18.60;99.90;;;;;;5057612;28;20380;-60
2022/06/26 07:10:49;;;;;;;4.55;3.17;;;18.60;99.90;;;;;;5074337;28;20024;-60
2022/06/26 07:13:14;;;;;;;5.78;3.20;;;18.70;99.90;;;;;;5061786;28;20476;-60
2022/06/26 07:15:40;;;;;;;8.52;4.18;;;18.90;99.90;;;;;;5074188;28;20017;-60
2022/06/26 07:18:05;;;;;;;6.75;4.13;;;18.90;99.60;;;;;;5072404;28;20048;-60
2022/06/26 07:20:31;;;;;;;5.70;3.50;;;18.90;99.50;;;;;;5072297;28;20524;-60
2022/06/26 07:25:56;;;;;;;7.75;3.67;;;19.00;98.60;;;;;;5069862;28;20025;-60
2022/06/26 07:28:23;;;;;;;4.00;2.30;;;19.10;98.50;;;;;;5073679;28;20070;-60
2022/06/26 07:30:48;;;;;;;4.13;2.83;;;19.10;98.40;;;;;;5065233;28;21351;-60
2022/06/26 07:35:58;;;;;;;5.88;3.15;;;19.30;98.10;;;;;;5071456;28;20047;-60
2022/06/26 07:38:24;;;;;;;3.90;2.92;;;19.40;97.90;;;;;;5071833;28;20480;-61
2022/06/26 07:40:50;;;;;;;5.43;2.67;;;19.50;97.80;;;;;;5071138;28;20032;-60
2022/06/26 07:43:15;;;;;;;4.20;3.28;;;19.60;97.90;;;;;;5070360;28;20025;-61
2022/06/26 07:45:41;;;;;;;5.78;3.30;;;19.70;97.60;;;;;;5068493;28;20076;-61
2022/06/26 07:48:07;;;;;;;4.00;2.65;;;19.70;97.20;;;;;;5072904;28;20033;-60
2022/06/26 07:50:32;;;;;;;4.40;2.50;;;19.80;97.20;;;;;;5070872;28;20062;-61
2022/06/26 07:52:58;;;;;;;4.53;2.70;;;20.00;97.10;;;;;;5071818;28;20424;-60
2022/06/26 07:55:23;;;;;;;6.43;3.60;;;20.10;96.90;;;;;;5068897;28;20529;-61
2022/06/26 07:57:49;;;;;;;6.35;4.28;;;20.20;96.60;;;;;;5070020;28;20044;-61
2022/06/26 08:00:15;;;;;;;4.85;3.15;;;20.20;96.40;;;;;;5063681;28;20029;-60
2022/06/26 08:02:43;;;;;;;5.22;2.50;;;20.10;96.20;;;;;;5062208;28;20408;-60
2022/06/26 08:05:08;;;;;;;4.47;2.63;;;20.10;96.00;;;;;;5065336;28;20024;-61
2022/06/26 08:07:34;;;;;;;4.53;2.63;;;20.10;95.70;;;;;;5064735;28;20033;-61
2022/06/26 08:10:00;;;;;;;4.60;3.25;;;20.20;95.30;;;;;;5066766;28;20389;-61
2022/06/26 08:12:25;;;;;;;4.47;3.33;;;20.10;94.30;;;;;;5065276;28;20492;-61
2022/06/26 08:14:51;;;;;;;5.47;3.60;;;20.10;94.60;;;;;;5067762;28;20078;-60
2022/06/26 08:17:17;;;;;;;4.80;3.00;;;20.00;94.80;;;;;;5071540;28;20100;-61
2022/06/26 08:19:54;;;;;;;4.78;3.25;;;20.10;95.00;;;;;;5060513;28;20044;-60
2022/06/26 08:22:19;;;;;;;4.80;3.42;;;20.20;95.00;;;;;;5071576;28;20074;-60
2022/06/26 08:24:45;;;;;;;5.57;3.08;;;20.20;94.70;;;;;;5073866;28;20028;-60
2022/06/26 08:27:11;;;;;;;4.18;2.30;;;20.20;94.80;;;;;;5072683;28;20031;-61
2022/06/26 08:29:42;;;;;;;4.45;2.60;;;20.40;94.80;;;;;;5067810;28;20036;-60
2022/06/26 08:32:10;;;;;;;4.93;2.50;;;20.50;94.60;;;;;;5053451;28;20010;-61
2022/06/26 08:34:36;;;;;;;3.55;2.05;;;20.50;94.50;;;;;;5088557;28;20038;-61
2022/06/26 08:37:02;;;;;;;4.88;2.67;;;20.70;94.50;;;;;;5080435;28;20021;-61
2022/06/26 08:39:27;;;;;;;3.78;2.00;;;20.60;94.20;;;;;;5060897;28;20358;-60
2022/06/26 08:41:54;;;;;;;4.60;2.00;;;20.60;93.80;;;;;;5066859;28;20032;-60
2022/06/26 08:44:21;;;;;;;6.95;3.45;;;20.70;93.70;;;;;;5057954;28;20021;-61
2022/06/26 08:46:47;;;;;;;5.68;3.17;;;20.50;93.20;;;;;;5066580;28;20035;-60
2022/06/26 08:49:20;;;;;;;6.20;3.20;;;20.40;93.20;;;;;;5068406;28;20086;-60
2022/06/26 08:51:47;;;;;;;6.50;3.47;;;20.40;93.00;;;;;;5065973;28;20392;-60
2022/06/26 08:54:14;;;;;;;5.22;3.22;;;20.20;93.20;;;;;;5066818;28;20353;-60
2022/06/26 08:56:46;;;;;;;6.93;3.70;;;20.20;93.20;;;;;;5078027;28;20025;-60
2022/06/26 08:59:14;;;;;;;5.65;3.35;;;20.20;93.40;;;;;;5077333;28;20511;-60
2022/06/26 09:01:42;;;;;;;7.88;3.67;;;20.10;93.40;;;;;;5068149;28;20020;-60
2022/06/26 09:04:09;;;;;;;6.80;5.15;;;20.20;93.60;;;;;;5070531;28;20498;-60
2022/06/26 09:06:38;;;;;;;5.82;3.63;;;20.10;93.70;;;;;;5069393;28;20033;-60
2022/06/26 09:09:23;;;;;;;5.00;3.03;;;20.10;93.40;;;;;;5067513;28;20029;-60
2022/06/26 09:11:51;;;;;;;4.13;2.55;;;20.20;93.50;;;;;;5061866;28;20021;-60
2022/06/26 09:14:16;;;;;;;6.40;3.00;;;20.20;93.50;;;;;;5065068;28;20118;-60
2022/06/26 09:16:44;;;;;;;4.72;3.30;;;20.40;93.30;;;;;;5059898;28;20472;-60
2022/06/26 09:19:21;;;;;;;6.32;2.85;;;20.40;92.70;;;;;;5065980;28;20026;-61
2022/06/26 09:21:47;;;;;;;5.63;3.15;;;20.40;92.80;;;;;;5069501;28;20071;-60
2022/06/26 09:24:15;;;;;;;3.97;2.83;;;20.40;92.80;;;;;;5067455;28;20520;-60
2022/06/26 09:26:42;;;;;;;5.97;3.90;;;20.50;92.70;;;;;;5068859;28;20036;-61
2022/06/26 09:29:12;;;;;;;5.75;4.30;;;20.50;92.50;;;;;;5099709;28;20025;-60
2022/06/26 09:31:39;;;;;;;5.35;2.65;;;20.40;92.50;;;;;;5059620;28;20020;-60
2022/06/26 09:34:06;;;;;;;4.38;2.72;;;20.40;92.60;;;;;;5062245;28;20484;-60
2022/06/26 09:36:31;;;;;;;4.90;2.58;;;20.60;92.80;;;;;;5059922;28;20357;-60
2022/06/26 09:38:57;;;;;;;6.07;3.70;;;20.60;92.70;;;;;;5070667;28;20025;-60
2022/06/26 09:41:31;;;;;;;7.10;4.00;;;20.70;92.50;;;;;;5065718;28;20023;-60
2022/06/26 09:43:57;;;;;;;5.25;2.75;;;20.60;92.30;;;;;;5054586;28;20100;-60
2022/06/26 09:46:29;;;;;;;5.88;2.75;;;20.60;92.60;;;;;;5060876;28;20155;-60
2022/06/26 09:48:57;;;;;;;5.07;3.05;;;20.70;92.60;;;;;;5064499;28;20021;-60
2022/06/26 09:51:23;;;;;;;6.05;2.95;;;20.80;92.60;;;;;;5051614;28;20016;-61
2022/06/26 09:53:49;;;;;;;4.82;3.08;;;20.90;92.40;;;;;;5060516;28;20024;-61
2022/06/26 09:56:15;;;;;;;4.65;2.53;;;21.00;92.30;;;;;;5059745;28;20020;-61
2022/06/26 09:58:41;;;;;;;5.93;2.95;;;21.10;92.10;;;;;;5059072;28;20102;-61
2022/06/26 10:06:36;;;;;;;6.50;3.00;;;21.00;91.20;;;;;;5059341;28;20047;-60
2022/06/26 10:09:07;;;;;;;5.35;2.92;;;20.90;91.00;;;;;;5060270;28;20388;-61
2022/06/26 10:11:35;;;;;;;4.63;2.70;;;20.80;90.90;;;;;;5059590;28;20025;-61
2022/06/26 10:14:18;;;;;;;7.20;3.73;;;20.90;91.10;;;;;;5062988;28;20032;-61
2022/06/26 10:16:50;;;;;;;5.82;3.47;;;20.90;91.20;;;;;;5053909;28;20031;-60
2022/06/26 10:19:28;;;;;;;6.50;3.92;;;20.80;91.10;;;;;;5062984;28;20025;-61
2022/06/26 10:21:55;;;;;;;4.68;3.13;;;20.70;91.70;;;;;;5061705;28;20030;-60
2022/06/26 10:24:21;;;;;;;4.80;3.03;;;20.70;92.10;;;;;;5062734;28;20031;-60
2022/06/26 10:26:58;;;;;;;6.57;3.70;;;20.80;91.50;;;;;;5059095;28;20021;-61
2022/06/26 10:29:38;;;;;;;7.78;3.30;;;20.80;91.10;;;;;;5056236;28;20017;-60
2022/06/26 10:32:16;;;;;;;7.47;4.25;;;20.70;91.20;;;;;;5055030;28;20025;-60
2022/06/26 10:34:42;;;;;;;10.15;4.05;;;20.70;91.50;;;;;;5066390;28;20480;-61
2022/06/26 10:37:14;;;;;;;5.40;3.50;;;20.60;92.00;;;;;;5053835;28;20017;-61
2022/06/26 10:39:41;;;;;;;6.68;3.63;;;20.60;91.90;;;;;;5057340;28;20031;-61
2022/06/26 10:45:09;;;;;;;6.07;3.00;;;20.50;92.10;;;;;;5061070;28;20503;-60
2022/06/26 10:47:44;;;;;;;4.82;3.13;;;20.60;92.10;;;;;;5056794;28;20487;-61
2022/06/26 10:50:30;;;;;;;7.85;3.38;;;20.60;91.80;;;;;;5054132;28;20029;-61
2022/06/26 10:53:22;;;;;;;4.47;2.60;;;20.60;91.90;;;;;;5056857;28;20029;-61
2022/06/26 10:55:55;;;;;;;6.57;2.65;;;20.60;92.60;;;;;;5057128;28;20036;-61
2022/06/26 10:58:29;;;;;;;6.07;2.47;;;20.60;91.90;;;;;;5055537;28;20053;-61
2022/06/26 11:01:16;;;;;;;3.08;1.80;;;20.60;91.90;;;;;;5054509;28;20112;-61
2022/06/26 11:03:43;;;;;;;3.50;2.30;;;20.60;91.00;;;;;;5063904;28;20058;-61
2022/06/26 11:06:11;;;;;;;10.10;3.65;;;20.60;91.40;;;;;;5067497;28;20128;-60
2022/06/26 11:08:42;;;;;;;4.60;2.38;;;20.70;91.00;;;;;;5051436;28;20037;-60
2022/06/26 11:11:14;;;;;;;3.92;2.15;;;20.60;91.10;;;;;;5067091;28;20038;-61
2022/06/26 11:13:55;;;;;;;6.00;2.25;;;20.60;90.80;;;;;;5066255;28;20094;-61
2022/06/26 11:16:42;;;;;;;7.60;2.72;;;20.70;91.10;;;;;;5063609;28;20029;-61
2022/06/26 11:19:27;;;;;;;5.85;2.47;;;20.60;90.00;;;;;;5069685;28;20032;-60
2022/06/26 11:22:11;;;;;;;4.22;2.42;;;20.60;90.70;;;;;;5064669;28;20103;-60
2022/06/26 11:24:51;;;;;;;5.38;2.65;;;20.60;90.80;;;;;;5067431;28;20158;-61
2022/06/26 11:27:20;;;;;;;4.97;2.40;;;20.50;90.90;;;;;;5063759;28;20025;-60
2022/06/26 11:29:47;;;;;;;3.55;1.92;;;20.40;91.00;;;;;;5056243;28;20021;-60
2022/06/26 11:32:12;;;;;;;5.47;2.10;;;20.40;91.20;;;;;;5064375;28;20516;-61
2022/06/26 11:34:51;;;;;;;4.32;2.67;;;20.50;91.50;;;;;;5090440;28;20017;-60
2022/06/26 11:37:17;;;;;;;4.28;2.30;;;20.70;90.90;;;;;;5064140;28;20021;-61
2022/06/26 11:39:43;;;;;;;8.10;2.38;;;20.60;90.70;;;;;;5058205;28;20032;-60
2022/06/26 11:42:22;;;;;;;5.10;2.20;;;20.70;90.30;;;;;;5067304;28;20079;-61
2022/06/26 11:44:52;;;;;;;6.50;2.63;;;20.70;90.60;;;;;;5069675;28;20017;-60
2022/06/26 11:47:19;;;;;;;4.28;2.40;;;20.60;89.90;;;;;;5069071;28;20052;-61
2022/06/26 11:49:45;;;;;;;4.22;1.60;;;20.60;90.10;;;;;;5069800;28;20056;-60
2022/06/26 11:52:12;;;;;;;4.43;2.40;;;20.70;90.80;;;;;;5083379;28;20025;-61
2022/06/26 11:54:38;;;;;;;3.92;1.77;;;20.70;89.90;;;;;;5103169;28;20084;-60
2022/06/26 11:57:11;;;;;;;5.57;2.03;;;20.70;89.70;;;;;;5068940;28;20096;-60
2022/06/26 11:59:44;;;;;;;4.03;2.10;;;20.50;89.30;;;;;;5070579;28;20037;-61
2022/06/26 12:02:25;;;;;;;6.10;2.92;;;20.50;90.20;;;;;;5102612;28;20056;-61
2022/06/26 12:05:01;;;;;;;4.57;2.47;;;20.50;90.20;;;;;;5070063;28;20039;-60
2022/06/26 12:07:44;;;;;;;9.93;2.60;;;20.40;90.40;;;;;;5070542;28;20028;-60
2022/06/26 12:10:10;;;;;;;7.72;3.22;;;20.30;90.70;;;;;;5073065;28;20035;-60
2022/06/26 12:12:36;;;;;;;7.47;3.15;;;20.30;91.10;;;;;;5068791;28;20096;-60
2022/06/26 12:15:02;;;;;;;5.75;2.35;;;20.30;91.70;;;;;;5066566;28;20096;-60
2022/06/26 12:17:31;;;;;;;5.68;2.50;;;20.20;91.10;;;;;;5071115;28;20013;-60
2022/06/26 12:20:07;;;;;;;5.97;1.87;;;20.20;90.70;;;;;;5068784;28;20052;-61
2022/06/26 12:22:34;;;;;;;3.65;2.00;;;20.20;90.70;;;;;;5070673;28;20036;-61
2022/06/26 12:25:00;;;;;;;3.58;1.98;;;20.20;90.40;;;;;;5067065;28;20027;-61
2022/06/26 12:27:34;;;;;;;5.13;2.00;;;20.10;90.70;;;;;;5068621;28;20375;-61
2022/06/26 12:30:00;;;;;;;4.72;2.15;;;20.10;91.10;;;;;;5068863;28;20033;-61
2022/06/26 12:32:26;;;;;;;5.75;2.33;;;20.10;91.30;;;;;;5062267;28;20031;-61
2022/06/26 12:34:51;;;;;;;3.90;2.10;;;20.00;90.80;;;;;;5068035;28;20047;-61
2022/06/26 12:37:17;;;;;;;6.80;2.65;;;19.90;91.80;;;;;;5069649;28;20562;-60
2022/06/26 12:39:43;;;;;;;4.95;2.72;;;19.80;91.10;;;;;;5071223;28;20029;-60
2022/06/26 12:42:08;;;;;;;7.55;3.13;;;19.70;91.30;;;;;;5069647;28;20047;-61
2022/06/26 12:44:34;;;;;;;4.50;2.35;;;19.70;91.60;;;;;;5068983;28;20425;-61
2022/06/26 12:46:59;;;;;;;4.05;2.40;;;19.60;91.80;;;;;;5070170;28;20701;-61
2022/06/26 12:49:25;;;;;;;8.07;3.47;;;19.70;92.50;;;;;;5072544;28;20032;-61
2022/06/26 12:51:52;;;;;;;5.53;3.72;;;19.60;92.40;;;;;;5069502;28;20074;-60
2022/06/26 12:54:18;;;;;;;5.32;3.53;;;19.60;92.60;;;;;;5069851;28;20038;-60
2022/06/26 12:56:43;;;;;;;5.50;3.30;;;19.60;92.60;;;;;;5067443;28;20097;-60
2022/06/26 12:59:09;;;;;;;5.90;2.78;;;19.60;92.00;;;;;;5065095;28;20040;-60
2022/06/26 13:01:34;;;;;;;6.75;2.85;;;19.60;91.90;;;;;;5065492;28;20201;-60
2022/06/26 13:04:00;;;;;;;4.18;3.05;;;19.70;92.60;;;;;;5068884;28;20042;-61
2022/06/26 13:06:25;;;;;;;5.50;3.20;;;19.70;92.30;;;;;;5083029;28;20025;-61
2022/06/26 13:08:51;;;;;;;6.28;3.80;;;19.80;92.10;;;;;;5065132;28;20076;-61